sensor_id;sensor_type;location;lat;lon;timestamp;pressure;altitude;pressure_sealevel;temperature;humidity
65718;BME280;52445;52.466;-1.016;2023-02-12T00:01:02;102298.78;;;8.49;66.67
65718;BME280;52445;52.466;-1.016;2023-02-12T00:03:28;102295.34;;;8.49;66.56
65718;BME280;52445;52.466;-1.016;2023-02-12T00:05:59;102297.03;;;8.48;67.11
65718;BME280;52445;52.466;-1.016;2023-02-12T00:08:26;102296.19;;;8.49;66.52
65718;BME280;52445;52.466;-1.016;2023-02-12T00:10:52;102298.78;;;8.49;67.09
65718;BME280;52445;52.466;-1.016;2023-02-12T00:13:19;102288.44;;;8.49;66.37
65718;BME280;52445;52.466;-1.016;2023-02-12T00:15:46;102289.28;;;8.48;67.07
65718;BME280;52445;52.466;-1.016;2023-02-12T00:18:12;102290.09;;;8.47;66.97
65718;BME280;52445;52.466;-1.016;2023-02-12T00:20:39;102295.25;;;8.47;67.11
65718;BME280;52445;52.466;-1.016;2023-02-12T00:23:06;102296.09;;;8.46;66.21
65718;BME280;52445;52.466;-1.016;2023-02-12T00:25:33;102290.94;;;8.46;66.95
65718;BME280;52445;52.466;-1.016;2023-02-12T00:28:00;102299.47;;;8.45;67.12
65718;BME280;52445;52.466;-1.016;2023-02-12T00:30:26;102297.78;;;8.46;66.74
65718;BME280;52445;52.466;-1.016;2023-02-12T00:32:53;102296.03;;;8.45;66.57
65718;BME280;52445;52.466;-1.016;2023-02-12T00:35:19;102293.38;;;8.43;66.95
65718;BME280;52445;52.466;-1.016;2023-02-12T00:37:46;102290.72;;;8.42;67.32
65718;BME280;52445;52.466;-1.016;2023-02-12T00:40:13;102285.50;;;8.40;66.95
65718;BME280;52445;52.466;-1.016;2023-02-12T00:42:39;102288.91;;;8.39;67.21
65718;BME280;52445;52.466;-1.016;2023-02-12T00:45:06;102289.72;;;8.38;67.21
65718;BME280;52445;52.466;-1.016;2023-02-12T00:47:33;102288.75;;;8.36;66.88
65718;BME280;52445;52.466;-1.016;2023-02-12T00:49:59;102287.94;;;8.37;66.90
65718;BME280;52445;52.466;-1.016;2023-02-12T00:52:26;102290.44;;;8.35;66.37
65718;BME280;52445;52.466;-1.016;2023-02-12T00:54:52;102305.94;;;8.35;67.22
65718;BME280;52445;52.466;-1.016;2023-02-12T00:57:19;102310.09;;;8.32;66.88
65718;BME280;52445;52.466;-1.016;2023-02-12T00:59:46;102298.81;;;8.30;66.93
65718;BME280;52445;52.466;-1.016;2023-02-12T01:02:13;102298.03;;;8.31;66.92
65718;BME280;52445;52.466;-1.016;2023-02-12T01:04:39;102297.13;;;8.30;67.39
65718;BME280;52445;52.466;-1.016;2023-02-12T01:07:06;102302.28;;;8.30;66.95
65718;BME280;52445;52.466;-1.016;2023-02-12T01:09:33;102308.22;;;8.28;66.90
65718;BME280;52445;52.466;-1.016;2023-02-12T01:11:59;102315.00;;;8.26;66.89
65718;BME280;52445;52.466;-1.016;2023-02-12T01:14:26;102310.72;;;8.26;67.33
65718;BME280;52445;52.466;-1.016;2023-02-12T01:16:52;102314.13;;;8.25;67.63
65718;BME280;52445;52.466;-1.016;2023-02-12T01:19:19;102310.66;;;8.25;67.56
65718;BME280;52445;52.466;-1.016;2023-02-12T01:21:46;102314.88;;;8.22;67.86
65718;BME280;52445;52.466;-1.016;2023-02-12T01:24:12;102314.88;;;8.22;67.64
65718;BME280;52445;52.466;-1.016;2023-02-12T01:26:39;102313.09;;;8.21;67.00
65718;BME280;52445;52.466;-1.016;2023-02-12T01:29:06;102317.47;;;8.22;67.49
65718;BME280;52445;52.466;-1.016;2023-02-12T01:31:36;102314.88;;;8.22;67.69
65718;BME280;52445;52.466;-1.016;2023-02-12T01:34:05;102302.75;;;8.21;67.08
65718;BME280;52445;52.466;-1.016;2023-02-12T01:36:33;102298.50;;;8.22;66.87
65718;BME280;52445;52.466;-1.016;2023-02-12T01:39:00;102301.16;;;8.23;66.91
65718;BME280;52445;52.466;-1.016;2023-02-12T01:41:32;102309.81;;;8.26;67.72
65718;BME280;52445;52.466;-1.016;2023-02-12T01:46:54;102300.31;;;8.25;67.26
65718;BME280;52445;52.466;-1.016;2023-02-12T01:49:24;102300.25;;;8.23;67.81
65718;BME280;52445;52.466;-1.016;2023-02-12T01:51:58;102302.75;;;8.21;67.86
65718;BME280;52445;52.466;-1.016;2023-02-12T01:54:27;102289.78;;;8.20;67.51
65718;BME280;52445;52.466;-1.016;2023-02-12T01:56:54;102291.50;;;8.19;67.95
65718;BME280;52445;52.466;-1.016;2023-02-12T01:59:21;102283.75;;;8.19;68.04
65718;BME280;52445;52.466;-1.016;2023-02-12T02:01:49;102288.03;;;8.19;68.20
65718;BME280;52445;52.466;-1.016;2023-02-12T02:04:19;102281.97;;;8.18;67.41
65718;BME280;52445;52.466;-1.016;2023-02-12T02:07:05;102283.47;;;8.13;67.86
65718;BME280;52445;52.466;-1.016;2023-02-12T02:09:34;102281.88;;;8.15;67.96
65718;BME280;52445;52.466;-1.016;2023-02-12T02:12:01;102278.31;;;8.13;68.12
65718;BME280;52445;52.466;-1.016;2023-02-12T02:14:52;102286.06;;;8.13;66.90
65718;BME280;52445;52.466;-1.016;2023-02-12T02:31:56;102274.53;;;8.05;67.24
65718;BME280;52445;52.466;-1.016;2023-02-12T02:34:28;102282.66;;;7.94;67.20
65718;BME280;52445;52.466;-1.016;2023-02-12T02:40:00;102279.63;;;8.44;67.45
65718;BME280;52445;52.466;-1.016;2023-02-12T02:48:04;102282.41;;;8.08;68.23
65718;BME280;52445;52.466;-1.016;2023-02-12T02:50:34;102275.50;;;8.07;67.79
65718;BME280;52445;52.466;-1.016;2023-02-12T02:53:07;102277.19;;;8.06;68.25
65718;BME280;52445;52.466;-1.016;2023-02-12T02:55:39;102284.03;;;8.06;68.50
65718;BME280;52445;52.466;-1.016;2023-02-12T02:58:12;102290.91;;;8.05;67.64
65718;BME280;52445;52.466;-1.016;2023-02-12T03:00:43;102289.13;;;8.04;68.41
65718;BME280;52445;52.466;-1.016;2023-02-12T03:05:52;102286.47;;;8.03;68.45
65718;BME280;52445;52.466;-1.016;2023-02-12T03:08:26;102284.72;;;8.02;67.32
65718;BME280;52445;52.466;-1.016;2023-02-12T03:10:58;102283.84;;;8.01;68.13
65718;BME280;52445;52.466;-1.016;2023-02-12T03:13:36;102280.31;;;7.99;68.03
65718;BME280;52445;52.466;-1.016;2023-02-12T03:16:13;102277.72;;;7.99;67.66
65718;BME280;52445;52.466;-1.016;2023-02-12T03:18:55;102269.91;;;7.97;67.51
65718;BME280;52445;52.466;-1.016;2023-02-12T03:21:28;102274.25;;;7.98;68.16
65718;BME280;52445;52.466;-1.016;2023-02-12T03:24:01;102276.81;;;7.98;67.78
65718;BME280;52445;52.466;-1.016;2023-02-12T03:26:38;102265.56;;;7.96;67.21
65718;BME280;52445;52.466;-1.016;2023-02-12T03:29:05;102272.50;;;7.97;67.66
65718;BME280;52445;52.466;-1.016;2023-02-12T03:31:50;102272.34;;;7.94;67.75
65718;BME280;52445;52.466;-1.016;2023-02-12T03:45:19;102271.94;;;8.05;67.42
65718;BME280;52445;52.466;-1.016;2023-02-12T03:47:51;102288.25;;;8.04;67.95
65718;BME280;52445;52.466;-1.016;2023-02-12T03:50:35;102288.94;;;8.00;67.60
65718;BME280;52445;52.466;-1.016;2023-02-12T03:53:05;102284.56;;;7.98;67.96
65718;BME280;52445;52.466;-1.016;2023-02-12T03:55:35;102281.06;;;7.96;67.38
65718;BME280;52445;52.466;-1.016;2023-02-12T03:58:07;102288.81;;;7.96;68.24
65718;BME280;52445;52.466;-1.016;2023-02-12T04:00:37;102283.56;;;7.95;67.72
65718;BME280;52445;52.466;-1.016;2023-02-12T04:03:05;102287.84;;;7.94;67.45
65718;BME280;52445;52.466;-1.016;2023-02-12T04:05:32;102287.84;;;7.94;68.55
65718;BME280;52445;52.466;-1.016;2023-02-12T04:07:59;102283.50;;;7.93;68.66
65718;BME280;52445;52.466;-1.016;2023-02-12T04:10:44;102286.75;;;7.89;67.68
65718;BME280;52445;52.466;-1.016;2023-02-12T04:13:38;102288.38;;;7.87;68.52
65718;BME280;52445;52.466;-1.016;2023-02-12T04:18:48;102293.69;;;7.90;67.64
65718;BME280;52445;52.466;-1.016;2023-02-12T04:27:05;102287.41;;;8.25;67.65
65718;BME280;52445;52.466;-1.016;2023-02-12T04:32:16;102293.97;;;7.96;67.89
65718;BME280;52445;52.466;-1.016;2023-02-12T04:37:29;102299.81;;;7.92;68.40
65718;BME280;52445;52.466;-1.016;2023-02-12T04:39:59;102295.44;;;7.91;67.62
65718;BME280;52445;52.466;-1.016;2023-02-12T04:42:28;102296.25;;;7.90;68.06
65718;BME280;52445;52.466;-1.016;2023-02-12T04:44:54;102297.06;;;7.89;68.45
65718;BME280;52445;52.466;-1.016;2023-02-12T04:47:21;102297.91;;;7.88;68.79
65718;BME280;52445;52.466;-1.016;2023-02-12T04:49:47;102289.34;;;7.89;67.55
65718;BME280;52445;52.466;-1.016;2023-02-12T04:52:14;102303.06;;;7.88;67.81
65718;BME280;52445;52.466;-1.016;2023-02-12T04:54:40;102293.53;;;7.87;67.79
65718;BME280;52445;52.466;-1.016;2023-02-12T04:57:08;102299.50;;;7.86;67.58
65718;BME280;52445;52.466;-1.016;2023-02-12T04:59:34;102295.19;;;7.85;67.58
65718;BME280;52445;52.466;-1.016;2023-02-12T05:02:01;102294.34;;;7.86;68.87
65718;BME280;52445;52.466;-1.016;2023-02-12T05:04:28;102288.25;;;7.84;67.63
65718;BME280;52445;52.466;-1.016;2023-02-12T05:06:54;102296.00;;;7.84;67.96
65718;BME280;52445;52.466;-1.016;2023-02-12T05:09:21;102289.06;;;7.83;68.11
65718;BME280;52445;52.466;-1.016;2023-02-12T05:11:47;102295.03;;;7.82;68.22
65718;BME280;52445;52.466;-1.016;2023-02-12T05:14:14;102285.53;;;7.81;67.53
65718;BME280;52445;52.466;-1.016;2023-02-12T05:16:41;102287.16;;;7.79;68.07
65718;BME280;52445;52.466;-1.016;2023-02-12T05:19:08;102284.56;;;7.79;68.66
65718;BME280;52445;52.466;-1.016;2023-02-12T05:21:36;102282.00;;;7.79;68.05
65718;BME280;52445;52.466;-1.016;2023-02-12T05:24:03;102281.13;;;7.78;68.23
65718;BME280;52445;52.466;-1.016;2023-02-12T05:26:30;102291.44;;;7.78;69.10
65718;BME280;52445;52.466;-1.016;2023-02-12T05:28:56;102291.38;;;7.77;67.85
65718;BME280;52445;52.466;-1.016;2023-02-12T05:31:23;102289.59;;;7.76;67.88
65718;BME280;52445;52.466;-1.016;2023-02-12T05:33:50;102294.75;;;7.76;68.09
65718;BME280;52445;52.466;-1.016;2023-02-12T05:36:20;102286.06;;;7.74;68.21
65718;BME280;52445;52.466;-1.016;2023-02-12T05:38:47;102288.66;;;7.74;67.98
65718;BME280;52445;52.466;-1.016;2023-02-12T05:41:16;102286.91;;;7.72;68.37
65718;BME280;52445;52.466;-1.016;2023-02-12T05:43:43;102286.00;;;7.72;68.52
65718;BME280;52445;52.466;-1.016;2023-02-12T05:46:13;102285.09;;;7.71;68.59
65718;BME280;52445;52.466;-1.016;2023-02-12T05:48:40;102292.84;;;7.71;68.10
65718;BME280;52445;52.466;-1.016;2023-02-12T05:51:12;102284.25;;;7.71;68.35
65718;BME280;52445;52.466;-1.016;2023-02-12T05:53:40;102282.47;;;7.70;67.48
65718;BME280;52445;52.466;-1.016;2023-02-12T05:58:51;102278.19;;;7.70;67.70
65718;BME280;52445;52.466;-1.016;2023-02-12T06:01:22;102280.75;;;7.70;68.95
65718;BME280;52445;52.466;-1.016;2023-02-12T06:03:49;102285.00;;;7.68;68.62
65718;BME280;52445;52.466;-1.016;2023-02-12T06:06:15;102277.25;;;7.68;68.76
65718;BME280;52445;52.466;-1.016;2023-02-12T06:08:42;102278.94;;;7.68;68.86
65718;BME280;52445;52.466;-1.016;2023-02-12T06:11:13;102283.19;;;7.67;68.08
65718;BME280;52445;52.466;-1.016;2023-02-12T06:13:40;102288.28;;;7.66;68.01
65718;BME280;52445;52.466;-1.016;2023-02-12T06:16:06;102283.13;;;7.66;68.39
65718;BME280;52445;52.466;-1.016;2023-02-12T06:18:41;102273.56;;;7.63;68.64
65718;BME280;52445;52.466;-1.016;2023-02-12T06:21:07;102281.28;;;7.63;69.22
65718;BME280;52445;52.466;-1.016;2023-02-12T06:23:34;102279.53;;;7.62;68.68
65718;BME280;52445;52.466;-1.016;2023-02-12T06:26:01;102271.72;;;7.61;68.72
65718;BME280;52445;52.466;-1.016;2023-02-12T06:28:27;102273.41;;;7.60;68.85
65718;BME280;52445;52.466;-1.016;2023-02-12T06:30:54;102275.19;;;7.61;67.92
65718;BME280;52445;52.466;-1.016;2023-02-12T06:33:20;102271.72;;;7.61;69.19
65718;BME280;52445;52.466;-1.016;2023-02-12T06:35:47;102271.66;;;7.59;68.34
65718;BME280;52445;52.466;-1.016;2023-02-12T06:38:14;102269.06;;;7.59;69.04
65718;BME280;52445;52.466;-1.016;2023-02-12T06:40:40;102267.31;;;7.58;69.35
65718;BME280;52445;52.466;-1.016;2023-02-12T06:43:07;102272.47;;;7.58;68.31
65718;BME280;52445;52.466;-1.016;2023-02-12T06:45:34;102267.31;;;7.58;69.21
65718;BME280;52445;52.466;-1.016;2023-02-12T06:48:01;102265.56;;;7.57;68.47
65718;BME280;52445;52.466;-1.016;2023-02-12T06:50:28;102275.06;;;7.58;69.06
65718;BME280;52445;52.466;-1.016;2023-02-12T06:52:55;102264.59;;;7.55;67.75
65718;BME280;52445;52.466;-1.016;2023-02-12T06:55:23;102263.66;;;7.53;68.68
65718;BME280;52445;52.466;-1.016;2023-02-12T06:57:49;102268.81;;;7.53;68.86
65718;BME280;52445;52.466;-1.016;2023-02-12T07:00:17;102269.59;;;7.52;68.68
65718;BME280;52445;52.466;-1.016;2023-02-12T07:02:43;102266.09;;;7.50;68.62
65718;BME280;52445;52.466;-1.016;2023-02-12T07:05:10;102264.19;;;7.45;69.21
65718;BME280;52445;52.466;-1.016;2023-02-12T07:07:36;102271.94;;;7.45;68.71
65718;BME280;52445;52.466;-1.016;2023-02-12T07:10:03;102276.94;;;7.42;69.88
65718;BME280;52445;52.466;-1.016;2023-02-12T07:12:32;102280.44;;;7.44;69.02
65718;BME280;52445;52.466;-1.016;2023-02-12T07:14:58;102282.09;;;7.42;69.83
65718;BME280;52445;52.466;-1.016;2023-02-12T07:17:25;102289.81;;;7.42;69.16
65718;BME280;52445;52.466;-1.016;2023-02-12T07:19:51;102280.34;;;7.41;68.85
65718;BME280;52445;52.466;-1.016;2023-02-12T07:22:18;102290.66;;;7.41;69.03
65718;BME280;52445;52.466;-1.016;2023-02-12T07:24:46;102297.56;;;7.42;69.29
65718;BME280;52445;52.466;-1.016;2023-02-12T07:27:13;102294.16;;;7.43;68.35
65718;BME280;52445;52.466;-1.016;2023-02-12T07:29:39;102296.59;;;7.40;68.70
65718;BME280;52445;52.466;-1.016;2023-02-12T07:32:06;102288.06;;;7.41;69.02
65718;BME280;52445;52.466;-1.016;2023-02-12T07:34:33;102302.72;;;7.42;68.27
65718;BME280;52445;52.466;-1.016;2023-02-12T07:36:59;102310.44;;;7.42;68.71
65718;BME280;52445;52.466;-1.016;2023-02-12T07:39:26;102313.03;;;7.42;69.74
65718;BME280;52445;52.466;-1.016;2023-02-12T07:41:52;102305.28;;;7.42;69.27
65718;BME280;52445;52.466;-1.016;2023-02-12T07:44:21;102309.63;;;7.43;68.57
65718;BME280;52445;52.466;-1.016;2023-02-12T07:46:48;102314.78;;;7.43;69.24
65718;BME280;52445;52.466;-1.016;2023-02-12T07:49:18;102307.88;;;7.42;69.70
65718;BME280;52445;52.466;-1.016;2023-02-12T07:51:46;102312.22;;;7.43;68.47
65718;BME280;52445;52.466;-1.016;2023-02-12T07:54:13;102313.09;;;7.44;69.59
65718;BME280;52445;52.466;-1.016;2023-02-12T07:56:41;102313.97;;;7.44;68.69
65718;BME280;52445;52.466;-1.016;2023-02-12T07:59:11;102311.38;;;7.44;69.53
65718;BME280;52445;52.466;-1.016;2023-02-12T08:01:39;102317.88;;;7.36;69.55
65718;BME280;52445;52.466;-1.016;2023-02-12T08:04:10;102316.53;;;7.44;68.23
65718;BME280;52445;52.466;-1.016;2023-02-12T08:06:42;102314.94;;;7.46;68.93
65718;BME280;52445;52.466;-1.016;2023-02-12T08:09:12;102316.69;;;7.48;69.33
65718;BME280;52445;52.466;-1.016;2023-02-12T08:11:41;102319.44;;;7.51;68.56
65718;BME280;52445;52.466;-1.016;2023-02-12T08:14:10;102313.44;;;7.52;68.33
65718;BME280;52445;52.466;-1.016;2023-02-12T08:16:39;102318.59;;;7.52;69.22
65718;BME280;52445;52.466;-1.016;2023-02-12T08:19:06;102317.75;;;7.51;69.64
65718;BME280;52445;52.466;-1.016;2023-02-12T08:21:45;102316.03;;;7.52;69.37
65718;BME280;52445;52.466;-1.016;2023-02-12T08:24:14;102327.31;;;7.54;69.28
65718;BME280;52445;52.466;-1.016;2023-02-12T08:26:40;102317.00;;;7.54;69.11
65718;BME280;52445;52.466;-1.016;2023-02-12T08:29:10;102324.06;;;7.58;68.91
65718;BME280;52445;52.466;-1.016;2023-02-12T08:31:39;102328.25;;;7.56;69.26
65718;BME280;52445;52.466;-1.016;2023-02-12T08:34:15;102318.00;;;7.57;68.92
65718;BME280;52445;52.466;-1.016;2023-02-12T08:36:43;102327.56;;;7.60;68.76
65718;BME280;52445;52.466;-1.016;2023-02-12T08:39:10;102321.72;;;7.63;69.00
65718;BME280;52445;52.466;-1.016;2023-02-12T08:41:37;102330.22;;;7.62;68.76
65718;BME280;52445;52.466;-1.016;2023-02-12T08:44:04;102331.34;;;7.67;68.70
65718;BME280;52445;52.466;-1.016;2023-02-12T08:46:33;102329.63;;;7.67;69.53
65718;BME280;52445;52.466;-1.016;2023-02-12T08:49:03;102329.78;;;7.70;69.07
65718;BME280;52445;52.466;-1.016;2023-02-12T08:51:33;102330.81;;;7.74;69.75
65718;BME280;52445;52.466;-1.016;2023-02-12T08:54:04;102331.75;;;7.76;68.90
65718;BME280;52445;52.466;-1.016;2023-02-12T08:56:32;102326.66;;;7.78;68.68
65718;BME280;52445;52.466;-1.016;2023-02-12T08:59:00;102331.09;;;7.80;69.18
65718;BME280;52445;52.466;-1.016;2023-02-12T09:01:29;102331.97;;;7.81;68.58
65718;BME280;52445;52.466;-1.016;2023-02-12T09:03:56;102331.97;;;7.81;68.86
65718;BME280;52445;52.466;-1.016;2023-02-12T09:06:24;102332.13;;;7.84;69.55
65718;BME280;52445;52.466;-1.016;2023-02-12T09:08:52;102328.03;;;7.89;68.96
65718;BME280;52445;52.466;-1.016;2023-02-12T09:11:21;102326.41;;;7.91;69.40
65718;BME280;52445;52.466;-1.016;2023-02-12T09:13:52;102326.53;;;7.94;68.55
65718;BME280;52445;52.466;-1.016;2023-02-12T09:16:18;102320.59;;;7.95;68.63
65718;BME280;52445;52.466;-1.016;2023-02-12T09:18:45;102320.63;;;7.97;69.51
65718;BME280;52445;52.466;-1.016;2023-02-12T09:21:13;102322.41;;;7.98;69.20
65718;BME280;52445;52.466;-1.016;2023-02-12T09:23:42;102325.88;;;7.98;68.73
65718;BME280;52445;52.466;-1.016;2023-02-12T09:26:11;102320.69;;;7.98;68.93
65718;BME280;52445;52.466;-1.016;2023-02-12T09:28:38;102316.56;;;8.02;69.83
65718;BME280;52445;52.466;-1.016;2023-02-12T09:31:11;102316.50;;;8.01;69.08
65718;BME280;52445;52.466;-1.016;2023-02-12T09:33:40;102320.84;;;8.02;69.78
65718;BME280;52445;52.466;-1.016;2023-02-12T09:36:10;102325.25;;;8.04;69.65
65718;BME280;52445;52.466;-1.016;2023-02-12T09:38:37;102311.63;;;8.07;69.29
65718;BME280;52445;52.466;-1.016;2023-02-12T09:41:37;102319.22;;;8.04;69.73
65718;BME280;52445;52.466;-1.016;2023-02-12T09:44:21;102318.53;;;8.08;68.82
65718;BME280;52445;52.466;-1.016;2023-02-12T09:46:55;102317.88;;;8.12;69.18
65718;BME280;52445;52.466;-1.016;2023-02-12T09:52:24;102321.53;;;8.17;68.56
65718;BME280;52445;52.466;-1.016;2023-02-12T09:54:52;102316.34;;;8.17;68.83
65718;BME280;52445;52.466;-1.016;2023-02-12T10:02:39;102313.09;;;8.21;68.71
65718;BME280;52445;52.466;-1.016;2023-02-12T10:05:16;102311.25;;;8.19;69.79
65718;BME280;52445;52.466;-1.016;2023-02-12T10:08:08;102311.19;;;8.17;69.02
65718;BME280;52445;52.466;-1.016;2023-02-12T10:13:35;102314.75;;;8.19;68.61
65718;BME280;52445;52.466;-1.016;2023-02-12T10:19:20;102313.22;;;8.25;68.50
65718;BME280;52445;52.466;-1.016;2023-02-12T10:27:10;102316.88;;;8.30;69.34
65718;BME280;52445;52.466;-1.016;2023-02-12T10:29:39;102323.84;;;8.31;69.30
65718;BME280;52445;52.466;-1.016;2023-02-12T10:32:25;102320.97;;;8.25;68.83
65718;BME280;52445;52.466;-1.016;2023-02-12T10:34:55;102319.59;;;8.33;69.24
65718;BME280;52445;52.466;-1.016;2023-02-12T10:37:42;102321.44;;;8.35;69.10
65718;BME280;52445;52.466;-1.016;2023-02-12T10:40:29;102322.47;;;8.39;68.31
65718;BME280;52445;52.466;-1.016;2023-02-12T10:42:59;102321.03;;;8.46;68.51
65718;BME280;52445;52.466;-1.016;2023-02-12T10:48:24;102319.44;;;8.49;68.46
65718;BME280;52445;52.466;-1.016;2023-02-12T10:53:45;102319.88;;;8.59;68.99
65718;BME280;52445;52.466;-1.016;2023-02-12T11:09:39;102329.19;;;8.77;68.09
65718;BME280;52445;52.466;-1.016;2023-02-12T11:18:00;102321.91;;;9.09;66.18
65718;BME280;52445;52.466;-1.016;2023-02-12T11:28:52;102322.53;;;8.82;67.62
65718;BME280;52445;52.466;-1.016;2023-02-12T11:31:23;102307.16;;;8.85;67.15
65718;BME280;52445;52.466;-1.016;2023-02-12T11:36:49;102307.03;;;8.82;66.72
65718;BME280;52445;52.466;-1.016;2023-02-12T11:39:25;102308.94;;;8.86;66.99
65718;BME280;52445;52.466;-1.016;2023-02-12T11:41:56;102302.63;;;8.79;67.01
65718;BME280;52445;52.466;-1.016;2023-02-12T11:44:27;102300.78;;;8.77;67.29
65718;BME280;52445;52.466;-1.016;2023-02-12T11:46:58;102297.06;;;8.70;66.72
65718;BME280;52445;52.466;-1.016;2023-02-12T11:49:31;102298.09;;;8.73;67.12
65718;BME280;52445;52.466;-1.016;2023-02-12T11:52:00;102295.31;;;8.69;66.90
65718;BME280;52445;52.466;-1.016;2023-02-12T11:54:35;102304.63;;;8.65;66.89
65718;BME280;52445;52.466;-1.016;2023-02-12T11:57:04;102305.72;;;8.51;66.35
65718;BME280;52445;52.466;-1.016;2023-02-12T11:59:37;102306.28;;;8.63;67.11
65718;BME280;52445;52.466;-1.016;2023-02-12T12:02:22;102308.16;;;8.67;66.76
65718;BME280;52445;52.466;-1.016;2023-02-12T12:04:53;102310.44;;;8.59;66.72
65718;BME280;52445;52.466;-1.016;2023-02-12T12:07:26;102308.91;;;8.65;66.62
65718;BME280;52445;52.466;-1.016;2023-02-12T12:12:51;102297.63;;;8.84;64.80
65718;BME280;52445;52.466;-1.016;2023-02-12T12:18:01;102288.56;;;8.53;65.85
65718;BME280;52445;52.466;-1.016;2023-02-12T12:23:52;102281.19;;;8.60;65.50
65718;BME280;52445;52.466;-1.016;2023-02-12T12:26:24;102278.47;;;8.57;66.29
65718;BME280;52445;52.466;-1.016;2023-02-12T12:29:15;102273.38;;;8.59;66.43
65718;BME280;52445;52.466;-1.016;2023-02-12T12:31:46;102269.84;;;8.57;66.23
65718;BME280;52445;52.466;-1.016;2023-02-12T12:34:20;102275.97;;;8.59;64.81
65718;BME280;52445;52.466;-1.016;2023-02-12T12:56:48;102251.84;;;9.03;64.83
65718;BME280;52445;52.466;-1.016;2023-02-12T12:59:49;102258.06;;;9.08;64.92
65718;BME280;52445;52.466;-1.016;2023-02-12T13:05:48;102230.47;;;9.07;64.52
65718;BME280;52445;52.466;-1.016;2023-02-12T13:08:44;102239.03;;;9.06;63.83
65718;BME280;52445;52.466;-1.016;2023-02-12T13:17:28;102232.34;;;9.11;64.50
65718;BME280;52445;52.466;-1.016;2023-02-12T13:20:09;102226.13;;;9.06;64.10
65718;BME280;52445;52.466;-1.016;2023-02-12T13:22:50;102221.00;;;9.07;64.51
65718;BME280;52445;52.466;-1.016;2023-02-12T13:25:27;102224.53;;;9.09;63.60
65718;BME280;52445;52.466;-1.016;2023-02-12T13:27:58;102214.94;;;9.07;64.27
65718;BME280;52445;52.466;-1.016;2023-02-12T13:30:29;102215.97;;;9.10;64.20
65718;BME280;52445;52.466;-1.016;2023-02-12T13:35:46;102220.50;;;9.16;63.55
65718;BME280;52445;52.466;-1.016;2023-02-12T13:38:21;102213.66;;;9.18;63.77
65718;BME280;52445;52.466;-1.016;2023-02-12T13:40:51;102209.97;;;9.11;64.03
65718;BME280;52445;52.466;-1.016;2023-02-12T13:54:21;102207.50;;;9.37;63.65
65718;BME280;52445;52.466;-1.016;2023-02-12T13:56:55;102208.53;;;9.43;63.90
65718;BME280;52445;52.466;-1.016;2023-02-12T14:02:39;102203.25;;;9.39;63.90
65718;BME280;52445;52.466;-1.016;2023-02-12T14:07:49;102194.59;;;9.39;63.30
65718;BME280;52445;52.466;-1.016;2023-02-12T14:10:23;102200.16;;;9.25;62.68
65718;BME280;52445;52.466;-1.016;2023-02-12T14:12:52;102196.50;;;9.20;63.86
65718;BME280;52445;52.466;-1.016;2023-02-12T14:15:31;102188.25;;;9.06;63.54
65718;BME280;52445;52.466;-1.016;2023-02-12T14:20:38;102189.22;;;9.10;63.83
65718;BME280;52445;52.466;-1.016;2023-02-12T14:23:26;102183.09;;;9.08;63.56
65718;BME280;52445;52.466;-1.016;2023-02-12T14:25:57;102185.59;;;9.05;63.75
65718;BME280;52445;52.466;-1.016;2023-02-12T14:36:45;102171.53;;;8.98;63.64
65718;BME280;52445;52.466;-1.016;2023-02-12T14:44:54;102171.97;;;9.09;62.97
65718;BME280;52445;52.466;-1.016;2023-02-12T14:50:13;102146.22;;;9.12;63.90
65718;BME280;52445;52.466;-1.016;2023-02-12T14:52:43;102153.03;;;9.10;63.94
65718;BME280;52445;52.466;-1.016;2023-02-12T14:55:20;102156.84;;;8.97;64.38
65718;BME280;52445;52.466;-1.016;2023-02-12T14:57:48;102149.16;;;8.98;64.27
65718;BME280;52445;52.466;-1.016;2023-02-12T15:03:06;102144.50;;;8.90;64.57
65718;BME280;52445;52.466;-1.016;2023-02-12T15:05:41;102140.13;;;8.87;64.88
65718;BME280;52445;52.466;-1.016;2023-02-12T15:21:56;102123.69;;;8.62;65.30
65718;BME280;52445;52.466;-1.016;2023-02-12T15:24:25;102120.16;;;8.60;64.58
65718;BME280;52445;52.466;-1.016;2023-02-12T15:26:55;102117.63;;;8.61;64.52
65718;BME280;52445;52.466;-1.016;2023-02-12T15:32:18;102127.19;;;8.64;63.98
65718;BME280;52445;52.466;-1.016;2023-02-12T15:34:49;102121.69;;;8.55;64.68
65718;BME280;52445;52.466;-1.016;2023-02-12T15:37:27;102123.44;;;8.56;64.97
65718;BME280;52445;52.466;-1.016;2023-02-12T15:39:58;102117.50;;;8.58;65.10
65718;BME280;52445;52.466;-1.016;2023-02-12T15:42:30;102120.91;;;8.57;64.14
65718;BME280;52445;52.466;-1.016;2023-02-12T15:45:15;102122.50;;;8.54;64.65
65718;BME280;52445;52.466;-1.016;2023-02-12T15:47:44;102116.34;;;8.52;65.12
65718;BME280;52445;52.466;-1.016;2023-02-12T15:50:13;102121.28;;;8.45;64.60
65718;BME280;52445;52.466;-1.016;2023-02-12T15:52:43;102124.81;;;8.47;64.38
65718;BME280;52445;52.466;-1.016;2023-02-12T15:55:16;102131.38;;;8.39;65.25
65718;BME280;52445;52.466;-1.016;2023-02-12T15:57:49;102129.97;;;8.47;65.08
65718;BME280;52445;52.466;-1.016;2023-02-12T16:03:01;102128.22;;;8.46;64.94
65718;BME280;52445;52.466;-1.016;2023-02-12T16:05:29;102124.69;;;8.44;64.76
65718;BME280;52445;52.466;-1.016;2023-02-12T16:07:56;102122.03;;;8.43;65.70
65718;BME280;52445;52.466;-1.016;2023-02-12T16:10:23;102121.16;;;8.42;65.44
65718;BME280;52445;52.466;-1.016;2023-02-12T16:12:52;102127.84;;;8.37;65.30
65718;BME280;52445;52.466;-1.016;2023-02-12T16:15:24;102128.25;;;8.25;65.85
65718;BME280;52445;52.466;-1.016;2023-02-12T16:17:51;102131.59;;;8.22;66.43
65718;BME280;52445;52.466;-1.016;2023-02-12T16:20:21;102130.63;;;8.20;66.53
65718;BME280;52445;52.466;-1.016;2023-02-12T16:22:50;102131.59;;;8.22;66.35
65718;BME280;52445;52.466;-1.016;2023-02-12T16:25:33;102125.47;;;8.20;66.75
65718;BME280;52445;52.466;-1.016;2023-02-12T16:30:39;102127.22;;;8.21;67.26
65718;BME280;52445;52.466;-1.016;2023-02-12T16:33:30;102130.06;;;8.06;67.16
65718;BME280;52445;52.466;-1.016;2023-02-12T16:36:01;102131.75;;;8.06;67.63
65718;BME280;52445;52.466;-1.016;2023-02-12T16:39:04;102129.72;;;7.98;66.75
65718;BME280;52445;52.466;-1.016;2023-02-12T16:41:34;102124.97;;;8.08;66.73